sensor_id;sensor_type;location;lat;lon;timestamp;P1;durP1;ratioP1;P2;durP2;ratioP2
83694;SDS011;73676;43.582;22.268;2024-02-14T00:00:14;23.23;;;19.15;;
83694;SDS011;73676;43.582;22.268;2024-02-14T00:02:41;37.60;;;26.45;;
83694;SDS011;73676;43.582;22.268;2024-02-14T00:05:09;34.08;;;24.48;;
83694;SDS011;73676;43.582;22.268;2024-02-14T00:07:36;17.05;;;13.13;;
83694;SDS011;73676;43.582;22.268;2024-02-14T00:10:02;22.35;;;16.88;;
83694;SDS011;73676;43.582;22.268;2024-02-14T00:12:27;15.73;;;13.02;;
83694;SDS011;73676;43.582;22.268;2024-02-14T00:14:53;25.10;;;18.48;;
83694;SDS011;73676;43.582;22.268;2024-02-14T00:17:18;23.45;;;17.98;;
83694;SDS011;73676;43.582;22.268;2024-02-14T00:19:43;22.42;;;17.30;;
83694;SDS011;73676;43.582;22.268;2024-02-14T00:22:09;20.77;;;17.33;;
83694;SDS011;73676;43.582;22.268;2024-02-14T00:24:34;18.92;;;15.00;;
83694;SDS011;73676;43.582;22.268;2024-02-14T00:27:01;20.10;;;15.93;;
83694;SDS011;73676;43.582;22.268;2024-02-14T00:29:28;24.05;;;18.27;;
83694;SDS011;73676;43.582;22.268;2024-02-14T00:31:53;25.23;;;19.77;;
83694;SDS011;73676;43.582;22.268;2024-02-14T00:34:18;40.10;;;26.50;;
83694;SDS011;73676;43.582;22.268;2024-02-14T00:36:44;35.45;;;23.83;;
83694;SDS011;73676;43.582;22.268;2024-02-14T00:39:09;24.50;;;18.80;;
83694;SDS011;73676;43.582;22.268;2024-02-14T00:41:35;34.35;;;25.02;;
83694;SDS011;73676;43.582;22.268;2024-02-14T00:44:01;30.13;;;22.15;;
83694;SDS011;73676;43.582;22.268;2024-02-14T00:46:26;52.70;;;31.42;;
83694;SDS011;73676;43.582;22.268;2024-02-14T00:48:52;28.75;;;20.83;;
83694;SDS011;73676;43.582;22.268;2024-02-14T00:51:19;27.13;;;18.60;;
83694;SDS011;73676;43.582;22.268;2024-02-14T00:53:44;32.00;;;23.80;;
83694;SDS011;73676;43.582;22.268;2024-02-14T00:56:10;23.77;;;18.73;;
83694;SDS011;73676;43.582;22.268;2024-02-14T00:58:36;20.65;;;16.70;;
83694;SDS011;73676;43.582;22.268;2024-02-14T01:01:01;22.35;;;17.10;;
83694;SDS011;73676;43.582;22.268;2024-02-14T01:03:26;16.85;;;14.27;;
83694;SDS011;73676;43.582;22.268;2024-02-14T01:05:52;25.60;;;20.38;;
83694;SDS011;73676;43.582;22.268;2024-02-14T01:08:17;24.38;;;18.98;;
83694;SDS011;73676;43.582;22.268;2024-02-14T01:10:42;32.15;;;22.55;;
83694;SDS011;73676;43.582;22.268;2024-02-14T01:13:08;19.42;;;16.33;;
83694;SDS011;73676;43.582;22.268;2024-02-14T01:15:33;26.88;;;21.48;;
83694;SDS011;73676;43.582;22.268;2024-02-14T01:17:59;26.92;;;21.55;;
83694;SDS011;73676;43.582;22.268;2024-02-14T01:20:25;32.25;;;24.98;;
83694;SDS011;73676;43.582;22.268;2024-02-14T01:22:50;26.52;;;20.75;;
83694;SDS011;73676;43.582;22.268;2024-02-14T01:25:16;18.98;;;14.85;;
83694;SDS011;73676;43.582;22.268;2024-02-14T01:27:41;21.63;;;16.42;;
83694;SDS011;73676;43.582;22.268;2024-02-14T01:30:08;20.65;;;17.80;;
83694;SDS011;73676;43.582;22.268;2024-02-14T01:32:33;22.60;;;18.48;;
83694;SDS011;73676;43.582;22.268;2024-02-14T01:34:58;30.40;;;22.75;;
83694;SDS011;73676;43.582;22.268;2024-02-14T01:37:25;28.52;;;20.30;;
83694;SDS011;73676;43.582;22.268;2024-02-14T01:39:51;37.33;;;25.17;;
83694;SDS011;73676;43.582;22.268;2024-02-14T01:42:16;25.85;;;20.00;;
83694;SDS011;73676;43.582;22.268;2024-02-14T01:44:41;20.13;;;17.27;;
83694;SDS011;73676;43.582;22.268;2024-02-14T01:47:08;53.20;;;31.73;;
83694;SDS011;73676;43.582;22.268;2024-02-14T01:49:34;31.13;;;22.55;;
83694;SDS011;73676;43.582;22.268;2024-02-14T01:52:01;27.48;;;20.60;;
83694;SDS011;73676;43.582;22.268;2024-02-14T01:54:27;32.45;;;19.25;;
83694;SDS011;73676;43.582;22.268;2024-02-14T01:56:54;26.08;;;19.77;;
83694;SDS011;73676;43.582;22.268;2024-02-14T01:59:20;35.70;;;23.63;;
83694;SDS011;73676;43.582;22.268;2024-02-14T02:01:45;27.88;;;20.90;;
83694;SDS011;73676;43.582;22.268;2024-02-14T02:04:11;42.22;;;25.10;;
83694;SDS011;73676;43.582;22.268;2024-02-14T02:06:37;32.20;;;21.58;;
83694;SDS011;73676;43.582;22.268;2024-02-14T02:09:02;37.45;;;25.05;;
83694;SDS011;73676;43.582;22.268;2024-02-14T02:11:28;30.63;;;21.95;;
83694;SDS011;73676;43.582;22.268;2024-02-14T02:13:53;31.65;;;23.33;;
83694;SDS011;73676;43.582;22.268;2024-02-14T02:16:20;55.85;;;32.80;;
83694;SDS011;73676;43.582;22.268;2024-02-14T02:18:46;70.47;;;33.33;;
83694;SDS011;73676;43.582;22.268;2024-02-14T02:21:13;39.83;;;25.75;;
83694;SDS011;73676;43.582;22.268;2024-02-14T02:23:39;75.63;;;36.10;;
83694;SDS011;73676;43.582;22.268;2024-02-14T02:26:06;78.78;;;37.55;;
83694;SDS011;73676;43.582;22.268;2024-02-14T02:28:32;70.60;;;32.17;;
83694;SDS011;73676;43.582;22.268;2024-02-14T02:30:57;117.13;;;41.50;;
83694;SDS011;73676;43.582;22.268;2024-02-14T02:33:22;69.78;;;33.45;;
83694;SDS011;73676;43.582;22.268;2024-02-14T02:35:48;58.38;;;30.65;;
83694;SDS011;73676;43.582;22.268;2024-02-14T02:38:15;240.70;;;74.38;;
83694;SDS011;73676;43.582;22.268;2024-02-14T02:40:40;50.47;;;25.73;;
83694;SDS011;73676;43.582;22.268;2024-02-14T02:43:06;87.25;;;37.28;;
83694;SDS011;73676;43.582;22.268;2024-02-14T02:45:31;54.33;;;30.35;;
83694;SDS011;73676;43.582;22.268;2024-02-14T02:47:56;123.30;;;52.08;;
83694;SDS011;73676;43.582;22.268;2024-02-14T02:50:21;105.15;;;45.15;;
83694;SDS011;73676;43.582;22.268;2024-02-14T02:52:47;111.88;;;49.90;;
83694;SDS011;73676;43.582;22.268;2024-02-14T02:55:13;91.97;;;42.67;;
83694;SDS011;73676;43.582;22.268;2024-02-14T02:57:40;99.38;;;47.08;;
83694;SDS011;73676;43.582;22.268;2024-02-14T03:00:05;95.78;;;47.70;;
83694;SDS011;73676;43.582;22.268;2024-02-14T03:02:32;59.00;;;34.78;;
83694;SDS011;73676;43.582;22.268;2024-02-14T03:04:59;31.55;;;24.27;;
83694;SDS011;73676;43.582;22.268;2024-02-14T03:07:25;35.95;;;25.45;;
83694;SDS011;73676;43.582;22.268;2024-02-14T03:09:50;45.80;;;27.88;;
83694;SDS011;73676;43.582;22.268;2024-02-14T03:12:16;28.02;;;21.77;;
83694;SDS011;73676;43.582;22.268;2024-02-14T03:14:43;26.23;;;20.88;;
83694;SDS011;73676;43.582;22.268;2024-02-14T03:17:09;26.27;;;21.23;;
83694;SDS011;73676;43.582;22.268;2024-02-14T03:19:35;46.10;;;25.58;;
83694;SDS011;73676;43.582;22.268;2024-02-14T03:22:06;62.78;;;34.85;;
83694;SDS011;73676;43.582;22.268;2024-02-14T03:24:34;93.82;;;43.78;;
83694;SDS011;73676;43.582;22.268;2024-02-14T03:27:00;46.95;;;27.23;;
83694;SDS011;73676;43.582;22.268;2024-02-14T03:29:26;26.45;;;18.60;;
83694;SDS011;73676;43.582;22.268;2024-02-14T03:31:52;26.63;;;20.65;;
83694;SDS011;73676;43.582;22.268;2024-02-14T03:34:17;40.97;;;26.38;;
83694;SDS011;73676;43.582;22.268;2024-02-14T03:36:44;37.70;;;25.35;;
83694;SDS011;73676;43.582;22.268;2024-02-14T03:39:09;83.45;;;37.33;;
83694;SDS011;73676;43.582;22.268;2024-02-14T03:41:35;67.65;;;36.47;;
83694;SDS011;73676;43.582;22.268;2024-02-14T03:44:02;43.88;;;28.50;;
83694;SDS011;73676;43.582;22.268;2024-02-14T03:46:29;56.08;;;31.50;;
83694;SDS011;73676;43.582;22.268;2024-02-14T03:48:55;47.72;;;28.92;;
83694;SDS011;73676;43.582;22.268;2024-02-14T03:51:23;32.00;;;22.52;;
83694;SDS011;73676;43.582;22.268;2024-02-14T03:53:48;28.50;;;18.20;;
83694;SDS011;73676;43.582;22.268;2024-02-14T03:56:13;78.70;;;34.95;;
83694;SDS011;73676;43.582;22.268;2024-02-14T03:58:41;31.75;;;22.10;;
83694;SDS011;73676;43.582;22.268;2024-02-14T04:01:07;28.08;;;20.17;;
83694;SDS011;73676;43.582;22.268;2024-02-14T04:03:32;33.60;;;21.80;;
83694;SDS011;73676;43.582;22.268;2024-02-14T04:05:57;57.42;;;31.42;;
83694;SDS011;73676;43.582;22.268;2024-02-14T04:08:23;29.35;;;19.10;;
83694;SDS011;73676;43.582;22.268;2024-02-14T04:10:48;27.08;;;20.35;;
83694;SDS011;73676;43.582;22.268;2024-02-14T04:13:19;25.50;;;18.75;;
83694;SDS011;73676;43.582;22.268;2024-02-14T04:15:44;26.48;;;16.92;;
83694;SDS011;73676;43.582;22.268;2024-02-14T04:18:09;28.88;;;19.52;;
83694;SDS011;73676;43.582;22.268;2024-02-14T04:20:35;20.98;;;15.02;;
83694;SDS011;73676;43.582;22.268;2024-02-14T04:23:00;40.22;;;23.25;;
83694;SDS011;73676;43.582;22.268;2024-02-14T04:25:25;27.95;;;19.92;;
83694;SDS011;73676;43.582;22.268;2024-02-14T04:27:51;55.30;;;28.05;;
83694;SDS011;73676;43.582;22.268;2024-02-14T04:30:16;27.67;;;18.95;;
83694;SDS011;73676;43.582;22.268;2024-02-14T04:32:41;23.65;;;14.48;;
83694;SDS011;73676;43.582;22.268;2024-02-14T04:35:08;29.60;;;19.13;;
83694;SDS011;73676;43.582;22.268;2024-02-14T04:37:34;22.30;;;15.43;;
83694;SDS011;73676;43.582;22.268;2024-02-14T04:39:59;32.67;;;20.52;;
83694;SDS011;73676;43.582;22.268;2024-02-14T04:42:24;17.60;;;13.85;;
83694;SDS011;73676;43.582;22.268;2024-02-14T04:44:50;18.60;;;16.10;;
83694;SDS011;73676;43.582;22.268;2024-02-14T04:47:15;18.45;;;15.18;;
83694;SDS011;73676;43.582;22.268;2024-02-14T04:49:42;18.33;;;14.38;;
83694;SDS011;73676;43.582;22.268;2024-02-14T04:52:07;34.65;;;19.83;;
83694;SDS011;73676;43.582;22.268;2024-02-14T04:54:33;26.45;;;16.70;;
83694;SDS011;73676;43.582;22.268;2024-02-14T04:56:58;19.17;;;14.32;;
83694;SDS011;73676;43.582;22.268;2024-02-14T04:59:24;18.13;;;13.88;;
83694;SDS011;73676;43.582;22.268;2024-02-14T05:01:49;17.15;;;13.38;;
83694;SDS011;73676;43.582;22.268;2024-02-14T05:04:15;15.68;;;12.43;;
83694;SDS011;73676;43.582;22.268;2024-02-14T05:06:41;28.90;;;19.00;;
83694;SDS011;73676;43.582;22.268;2024-02-14T05:09:07;256.30;;;114.22;;
83694;SDS011;73676;43.582;22.268;2024-02-14T05:11:35;360.85;;;198.00;;
83694;SDS011;73676;43.582;22.268;2024-02-14T05:14:00;65.82;;;49.35;;
83694;SDS011;73676;43.582;22.268;2024-02-14T05:16:27;82.03;;;44.45;;
83694;SDS011;73676;43.582;22.268;2024-02-14T05:18:52;107.80;;;48.75;;
83694;SDS011;73676;43.582;22.268;2024-02-14T05:21:19;43.70;;;38.25;;
83694;SDS011;73676;43.582;22.268;2024-02-14T05:23:45;172.40;;;128.32;;
83694;SDS011;73676;43.582;22.268;2024-02-14T05:26:10;255.40;;;98.03;;
83694;SDS011;73676;43.582;22.268;2024-02-14T05:28:35;90.32;;;37.13;;
83694;SDS011;73676;43.582;22.268;2024-02-14T05:31:01;197.93;;;79.38;;
83694;SDS011;73676;43.582;22.268;2024-02-14T05:33:28;182.02;;;59.05;;
83694;SDS011;73676;43.582;22.268;2024-02-14T05:35:53;161.85;;;55.90;;
83694;SDS011;73676;43.582;22.268;2024-02-14T05:38:19;84.97;;;33.95;;
83694;SDS011;73676;43.582;22.268;2024-02-14T05:40:45;81.35;;;34.83;;
83694;SDS011;73676;43.582;22.268;2024-02-14T05:43:10;71.40;;;33.17;;
83694;SDS011;73676;43.582;22.268;2024-02-14T05:45:36;50.55;;;26.02;;
83694;SDS011;73676;43.582;22.268;2024-02-14T05:48:01;90.25;;;37.63;;
83694;SDS011;73676;43.582;22.268;2024-02-14T05:50:27;52.67;;;24.45;;
83694;SDS011;73676;43.582;22.268;2024-02-14T05:52:52;91.82;;;41.22;;
83694;SDS011;73676;43.582;22.268;2024-02-14T05:55:17;62.03;;;29.90;;
83694;SDS011;73676;43.582;22.268;2024-02-14T05:57:43;54.55;;;28.17;;
83694;SDS011;73676;43.582;22.268;2024-02-14T06:00:08;88.00;;;39.05;;
83694;SDS011;73676;43.582;22.268;2024-02-14T06:02:35;112.80;;;45.70;;
83694;SDS011;73676;43.582;22.268;2024-02-14T06:05:00;61.83;;;30.95;;
83694;SDS011;73676;43.582;22.268;2024-02-14T06:07:27;33.90;;;19.17;;
83694;SDS011;73676;43.582;22.268;2024-02-14T06:09:53;49.28;;;23.88;;
83694;SDS011;73676;43.582;22.268;2024-02-14T06:12:18;47.80;;;24.10;;
83694;SDS011;73676;43.582;22.268;2024-02-14T06:14:43;26.25;;;18.05;;
83694;SDS011;73676;43.582;22.268;2024-02-14T06:17:09;28.23;;;16.73;;
83694;SDS011;73676;43.582;22.268;2024-02-14T06:19:35;40.63;;;20.48;;
83694;SDS011;73676;43.582;22.268;2024-02-14T06:22:01;27.60;;;17.10;;
83694;SDS011;73676;43.582;22.268;2024-02-14T06:24:26;44.53;;;22.23;;
83694;SDS011;73676;43.582;22.268;2024-02-14T06:26:51;23.42;;;16.65;;
83694;SDS011;73676;43.582;22.268;2024-02-14T06:29:17;31.80;;;18.63;;
83694;SDS011;73676;43.582;22.268;2024-02-14T06:31:42;20.98;;;14.00;;
83694;SDS011;73676;43.582;22.268;2024-02-14T06:34:07;30.95;;;17.98;;
83694;SDS011;73676;43.582;22.268;2024-02-14T06:36:33;26.08;;;18.95;;
83694;SDS011;73676;43.582;22.268;2024-02-14T06:38:58;26.20;;;17.75;;
83694;SDS011;73676;43.582;22.268;2024-02-14T06:41:23;18.38;;;12.70;;
83694;SDS011;73676;43.582;22.268;2024-02-14T06:43:50;17.73;;;13.30;;
83694;SDS011;73676;43.582;22.268;2024-02-14T06:46:16;25.23;;;17.48;;
83694;SDS011;73676;43.582;22.268;2024-02-14T06:48:41;32.85;;;19.23;;
83694;SDS011;73676;43.582;22.268;2024-02-14T06:51:06;115.53;;;39.80;;
83694;SDS011;73676;43.582;22.268;2024-02-14T06:53:32;126.07;;;42.42;;
83694;SDS011;73676;43.582;22.268;2024-02-14T06:55:57;92.95;;;32.15;;
83694;SDS011;73676;43.582;22.268;2024-02-14T06:58:23;127.40;;;41.92;;
83694;SDS011;73676;43.582;22.268;2024-02-14T07:00:48;216.48;;;49.00;;
83694;SDS011;73676;43.582;22.268;2024-02-14T07:03:13;217.20;;;49.08;;
83694;SDS011;73676;43.582;22.268;2024-02-14T07:05:39;175.80;;;45.30;;
83694;SDS011;73676;43.582;22.268;2024-02-14T07:08:04;187.32;;;50.72;;
83694;SDS011;73676;43.582;22.268;2024-02-14T07:10:30;130.20;;;37.58;;
83694;SDS011;73676;43.582;22.268;2024-02-14T07:12:55;166.60;;;45.55;;
83694;SDS011;73676;43.582;22.268;2024-02-14T07:15:20;224.00;;;54.70;;
83694;SDS011;73676;43.582;22.268;2024-02-14T07:17:46;265.73;;;65.05;;
83694;SDS011;73676;43.582;22.268;2024-02-14T07:20:11;223.85;;;57.05;;
83694;SDS011;73676;43.582;22.268;2024-02-14T07:22:37;161.15;;;42.55;;
83694;SDS011;73676;43.582;22.268;2024-02-14T07:25:03;51.25;;;21.65;;
83694;SDS011;73676;43.582;22.268;2024-02-14T07:27:30;31.00;;;16.50;;
83694;SDS011;73676;43.582;22.268;2024-02-14T07:29:55;36.97;;;15.38;;
83694;SDS011;73676;43.582;22.268;2024-02-14T07:32:20;51.45;;;25.35;;
83694;SDS011;73676;43.582;22.268;2024-02-14T07:34:46;191.98;;;59.08;;
83694;SDS011;73676;43.582;22.268;2024-02-14T07:37:11;126.88;;;40.38;;
83694;SDS011;73676;43.582;22.268;2024-02-14T07:39:36;38.78;;;20.02;;
83694;SDS011;73676;43.582;22.268;2024-02-14T07:42:02;109.95;;;30.70;;
83694;SDS011;73676;43.582;22.268;2024-02-14T07:44:28;59.42;;;23.48;;
83694;SDS011;73676;43.582;22.268;2024-02-14T07:46:53;26.73;;;16.10;;
83694;SDS011;73676;43.582;22.268;2024-02-14T07:49:18;75.93;;;27.33;;
83694;SDS011;73676;43.582;22.268;2024-02-14T07:51:46;33.13;;;17.60;;
83694;SDS011;73676;43.582;22.268;2024-02-14T07:54:12;86.55;;;29.00;;
83694;SDS011;73676;43.582;22.268;2024-02-14T07:56:37;18.67;;;11.63;;
83694;SDS011;73676;43.582;22.268;2024-02-14T07:59:02;15.13;;;10.77;;
83694;SDS011;73676;43.582;22.268;2024-02-14T08:01:30;12.75;;;10.07;;
83694;SDS011;73676;43.582;22.268;2024-02-14T08:03:57;14.57;;;11.65;;
83694;SDS011;73676;43.582;22.268;2024-02-14T08:06:23;11.82;;;8.45;;
83694;SDS011;73676;43.582;22.268;2024-02-14T08:08:48;13.52;;;9.73;;
83694;SDS011;73676;43.582;22.268;2024-02-14T08:11:22;10.30;;;7.32;;
83694;SDS011;73676;43.582;22.268;2024-02-14T08:13:47;37.92;;;12.07;;
83694;SDS011;73676;43.582;22.268;2024-02-14T08:16:13;13.43;;;9.52;;
83694;SDS011;73676;43.582;22.268;2024-02-14T08:18:38;28.27;;;11.00;;
83694;SDS011;73676;43.582;22.268;2024-02-14T08:21:05;19.02;;;9.27;;
83694;SDS011;73676;43.582;22.268;2024-02-14T08:23:31;11.55;;;8.60;;
83694;SDS011;73676;43.582;22.268;2024-02-14T08:25:56;15.23;;;8.35;;
83694;SDS011;73676;43.582;22.268;2024-02-14T08:28:21;14.48;;;8.82;;
83694;SDS011;73676;43.582;22.268;2024-02-14T08:30:48;50.17;;;21.52;;
83694;SDS011;73676;43.582;22.268;2024-02-14T08:33:13;22.98;;;12.45;;
83694;SDS011;73676;43.582;22.268;2024-02-14T08:35:39;13.73;;;8.55;;
83694;SDS011;73676;43.582;22.268;2024-02-14T08:38:04;21.42;;;13.48;;
83694;SDS011;73676;43.582;22.268;2024-02-14T08:40:29;26.27;;;17.35;;
83694;SDS011;73676;43.582;22.268;2024-02-14T08:42:55;64.68;;;36.85;;
83694;SDS011;73676;43.582;22.268;2024-02-14T08:45:20;7.55;;;6.75;;
83694;SDS011;73676;43.582;22.268;2024-02-14T08:47:45;6.90;;;6.20;;
83694;SDS011;73676;43.582;22.268;2024-02-14T08:50:11;7.10;;;5.90;;
83694;SDS011;73676;43.582;22.268;2024-02-14T08:52:36;8.45;;;6.72;;
83694;SDS011;73676;43.582;22.268;2024-02-14T08:55:03;8.75;;;7.85;;
83694;SDS011;73676;43.582;22.268;2024-02-14T08:57:28;48.63;;;23.60;;
83694;SDS011;73676;43.582;22.268;2024-02-14T08:59:56;27.40;;;15.98;;
83694;SDS011;73676;43.582;22.268;2024-02-14T09:02:21;20.48;;;14.50;;
83694;SDS011;73676;43.582;22.268;2024-02-14T09:04:47;25.70;;;16.67;;
83694;SDS011;73676;43.582;22.268;2024-02-14T09:07:13;8.20;;;6.30;;
83694;SDS011;73676;43.582;22.268;2024-02-14T09:09:38;5.47;;;4.80;;
83694;SDS011;73676;43.582;22.268;2024-02-14T09:12:04;5.15;;;4.55;;
83694;SDS011;73676;43.582;22.268;2024-02-14T09:14:29;5.35;;;3.92;;
83694;SDS011;73676;43.582;22.268;2024-02-14T09:16:55;4.30;;;3.90;;
83694;SDS011;73676;43.582;22.268;2024-02-14T09:19:21;6.63;;;4.70;;
83694;SDS011;73676;43.582;22.268;2024-02-14T09:21:46;12.35;;;8.68;;
83694;SDS011;73676;43.582;22.268;2024-02-14T09:24:12;5.97;;;3.60;;
83694;SDS011;73676;43.582;22.268;2024-02-14T09:26:38;5.30;;;3.47;;
83694;SDS011;73676;43.582;22.268;2024-02-14T09:29:03;5.10;;;3.80;;
83694;SDS011;73676;43.582;22.268;2024-02-14T09:31:28;4.70;;;4.03;;
83694;SDS011;73676;43.582;22.268;2024-02-14T09:33:53;4.22;;;3.45;;
83694;SDS011;73676;43.582;22.268;2024-02-14T09:36:22;3.30;;;2.53;;
83694;SDS011;73676;43.582;22.268;2024-02-14T09:38:47;3.03;;;2.50;;
83694;SDS011;73676;43.582;22.268;2024-02-14T09:41:22;4.47;;;2.42;;
83694;SDS011;73676;43.582;22.268;2024-02-14T09:43:47;6.22;;;5.13;;
83694;SDS011;73676;43.582;22.268;2024-02-14T09:46:13;6.00;;;5.40;;
83694;SDS011;73676;43.582;22.268;2024-02-14T09:48:39;6.35;;;5.55;;
83694;SDS011;73676;43.582;22.268;2024-02-14T09:51:05;7.32;;;5.90;;
83694;SDS011;73676;43.582;22.268;2024-02-14T09:53:31;9.40;;;6.88;;
83694;SDS011;73676;43.582;22.268;2024-02-14T09:55:57;3.83;;;3.10;;
83694;SDS011;73676;43.582;22.268;2024-02-14T09:58:24;2.70;;;2.50;;
83694;SDS011;73676;43.582;22.268;2024-02-14T10:00:49;2.67;;;2.47;;
83694;SDS011;73676;43.582;22.268;2024-02-14T10:03:16;5.70;;;3.90;;
83694;SDS011;73676;43.582;22.268;2024-02-14T10:05:41;4.53;;;3.65;;
83694;SDS011;73676;43.582;22.268;2024-02-14T10:08:07;4.47;;;2.88;;
83694;SDS011;73676;43.582;22.268;2024-02-14T10:10:34;2.78;;;2.53;;
83694;SDS011;73676;43.582;22.268;2024-02-14T10:13:05;5.60;;;5.00;;
83694;SDS011;73676;43.582;22.268;2024-02-14T10:15:31;9.27;;;7.13;;
83694;SDS011;73676;43.582;22.268;2024-02-14T10:17:57;12.25;;;7.55;;
83694;SDS011;73676;43.582;22.268;2024-02-14T10:20:23;3.42;;;2.88;;
83694;SDS011;73676;43.582;22.268;2024-02-14T10:22:50;4.75;;;2.92;;
83694;SDS011;73676;43.582;22.268;2024-02-14T10:25:15;3.53;;;2.80;;
83694;SDS011;73676;43.582;22.268;2024-02-14T10:27:43;3.40;;;3.00;;
83694;SDS011;73676;43.582;22.268;2024-02-14T10:30:09;4.70;;;3.47;;
83694;SDS011;73676;43.582;22.268;2024-02-14T10:32:35;3.90;;;3.33;;
83694;SDS011;73676;43.582;22.268;2024-02-14T10:35:03;4.22;;;3.40;;
83694;SDS011;73676;43.582;22.268;2024-02-14T10:37:29;5.00;;;3.95;;
83694;SDS011;73676;43.582;22.268;2024-02-14T10:39:55;4.45;;;3.53;;
83694;SDS011;73676;43.582;22.268;2024-02-14T10:42:21;3.90;;;3.50;;
83694;SDS011;73676;43.582;22.268;2024-02-14T10:44:46;3.88;;;3.20;;
83694;SDS011;73676;43.582;22.268;2024-02-14T10:47:14;5.53;;;3.95;;
83694;SDS011;73676;43.582;22.268;2024-02-14T10:49:42;6.53;;;4.47;;
83694;SDS011;73676;43.582;22.268;2024-02-14T10:52:08;4.50;;;3.65;;
83694;SDS011;73676;43.582;22.268;2024-02-14T10:54:35;4.05;;;3.60;;
83694;SDS011;73676;43.582;22.268;2024-02-14T10:57:02;6.10;;;3.80;;
83694;SDS011;73676;43.582;22.268;2024-02-14T11:01:54;4.83;;;3.63;;
83694;SDS011;73676;43.582;22.268;2024-02-14T11:04:21;4.80;;;4.03;;
83694;SDS011;73676;43.582;22.268;2024-02-14T11:06:47;4.88;;;4.07;;
83694;SDS011;73676;43.582;22.268;2024-02-14T11:09:13;4.50;;;3.80;;
83694;SDS011;73676;43.582;22.268;2024-02-14T11:11:40;7.05;;;4.78;;
83694;SDS011;73676;43.582;22.268;2024-02-14T11:14:06;5.93;;;4.82;;
83694;SDS011;73676;43.582;22.268;2024-02-14T11:16:31;5.45;;;4.72;;
83694;SDS011;73676;43.582;22.268;2024-02-14T11:19:08;3.90;;;3.20;;
83694;SDS011;73676;43.582;22.268;2024-02-14T11:21:35;4.90;;;3.75;;
83694;SDS011;73676;43.582;22.268;2024-02-14T11:24:05;4.60;;;4.00;;
83694;SDS011;73676;43.582;22.268;2024-02-14T11:26:39;5.40;;;3.50;;
83694;SDS011;73676;43.582;22.268;2024-02-14T11:29:04;4.63;;;3.38;;
83694;SDS011;73676;43.582;22.268;2024-02-14T11:31:33;5.47;;;4.95;;
83694;SDS011;73676;43.582;22.268;2024-02-14T11:34:02;12.07;;;5.95;;
83694;SDS011;73676;43.582;22.268;2024-02-14T11:36:29;6.45;;;5.20;;
83694;SDS011;73676;43.582;22.268;2024-02-14T11:38:54;5.45;;;4.55;;
83694;SDS011;73676;43.582;22.268;2024-02-14T11:41:20;8.13;;;5.22;;
83694;SDS011;73676;43.582;22.268;2024-02-14T11:43:52;8.38;;;4.85;;
83694;SDS011;73676;43.582;22.268;2024-02-14T11:46:17;5.22;;;4.00;;
83694;SDS011;73676;43.582;22.268;2024-02-14T11:48:43;9.00;;;6.03;;
83694;SDS011;73676;43.582;22.268;2024-02-14T11:51:11;7.47;;;5.55;;
83694;SDS011;73676;43.582;22.268;2024-02-14T11:53:36;10.93;;;6.65;;
83694;SDS011;73676;43.582;22.268;2024-02-14T11:56:01;7.88;;;5.72;;
83694;SDS011;73676;43.582;22.268;2024-02-14T11:58:30;6.80;;;4.70;;
83694;SDS011;73676;43.582;22.268;2024-02-14T12:00:56;5.95;;;4.57;;
83694;SDS011;73676;43.582;22.268;2024-02-14T12:03:22;6.85;;;3.97;;
83694;SDS011;73676;43.582;22.268;2024-02-14T12:05:50;7.68;;;5.75;;
83694;SDS011;73676;43.582;22.268;2024-02-14T12:08:16;8.32;;;6.78;;
83694;SDS011;73676;43.582;22.268;2024-02-14T12:10:43;4.28;;;3.88;;
83694;SDS011;73676;43.582;22.268;2024-02-14T12:13:12;6.78;;;4.28;;
83694;SDS011;73676;43.582;22.268;2024-02-14T12:15:41;4.60;;;3.70;;
83694;SDS011;73676;43.582;22.268;2024-02-14T12:18:08;5.00;;;4.30;;
83694;SDS011;73676;43.582;22.268;2024-02-14T12:20:34;7.65;;;5.78;;
83694;SDS011;73676;43.582;22.268;2024-02-14T12:22:59;3.90;;;3.58;;
83694;SDS011;73676;43.582;22.268;2024-02-14T12:25:27;5.03;;;3.70;;
83694;SDS011;73676;43.582;22.268;2024-02-14T12:27:53;6.57;;;3.70;;
83694;SDS011;73676;43.582;22.268;2024-02-14T12:30:18;5.13;;;3.63;;
83694;SDS011;73676;43.582;22.268;2024-02-14T12:32:46;3.92;;;3.53;;
83694;SDS011;73676;43.582;22.268;2024-02-14T12:35:22;2.72;;;2.47;;
83694;SDS011;73676;43.582;22.268;2024-02-14T12:37:48;3.85;;;3.42;;
83694;SDS011;73676;43.582;22.268;2024-02-14T12:40:13;3.83;;;3.22;;
83694;SDS011;73676;43.582;22.268;2024-02-14T12:42:39;5.15;;;4.20;;
83694;SDS011;73676;43.582;22.268;2024-02-14T12:45:04;4.07;;;3.47;;
83694;SDS011;73676;43.582;22.268;2024-02-14T12:47:30;6.45;;;4.30;;
83694;SDS011;73676;43.582;22.268;2024-02-14T12:49:58;4.20;;;3.30;;
83694;SDS011;73676;43.582;22.268;2024-02-14T12:52:24;4.10;;;3.22;;
83694;SDS011;73676;43.582;22.268;2024-02-14T12:54:50;6.30;;;4.18;;
83694;SDS011;73676;43.582;22.268;2024-02-14T12:57:15;4.85;;;3.58;;
83694;SDS011;73676;43.582;22.268;2024-02-14T12:59:41;4.25;;;3.60;;
83694;SDS011;73676;43.582;22.268;2024-02-14T13:02:06;4.05;;;3.30;;
83694;SDS011;73676;43.582;22.268;2024-02-14T13:04:32;4.35;;;3.30;;
83694;SDS011;73676;43.582;22.268;2024-02-14T13:06:57;4.80;;;3.95;;
83694;SDS011;73676;43.582;22.268;2024-02-14T13:09:23;6.75;;;3.88;;
83694;SDS011;73676;43.582;22.268;2024-02-14T13:11:48;5.70;;;3.67;;
83694;SDS011;73676;43.582;22.268;2024-02-14T13:14:13;6.75;;;4.10;;
83694;SDS011;73676;43.582;22.268;2024-02-14T13:16:40;3.50;;;2.75;;
83694;SDS011;73676;43.582;22.268;2024-02-14T13:19:05;7.57;;;3.50;;
83694;SDS011;73676;43.582;22.268;2024-02-14T13:21:30;5.40;;;2.78;;
83694;SDS011;73676;43.582;22.268;2024-02-14T13:23:56;7.38;;;4.57;;
83694;SDS011;73676;43.582;22.268;2024-02-14T13:26:22;4.88;;;3.80;;
83694;SDS011;73676;43.582;22.268;2024-02-14T13:28:49;6.35;;;3.88;;
83694;SDS011;73676;43.582;22.268;2024-02-14T13:31:36;6.78;;;4.50;;
83694;SDS011;73676;43.582;22.268;2024-02-14T13:34:01;4.40;;;3.97;;
83694;SDS011;73676;43.582;22.268;2024-02-14T13:36:28;6.63;;;4.47;;
83694;SDS011;73676;43.582;22.268;2024-02-14T13:38:54;5.78;;;4.50;;
83694;SDS011;73676;43.582;22.268;2024-02-14T13:41:19;5.07;;;3.60;;
83694;SDS011;73676;43.582;22.268;2024-02-14T13:43:44;5.55;;;4.85;;
83694;SDS011;73676;43.582;22.268;2024-02-14T13:46:09;5.30;;;4.45;;
83694;SDS011;73676;43.582;22.268;2024-02-14T13:48:36;5.23;;;4.17;;
83694;SDS011;73676;43.582;22.268;2024-02-14T13:51:01;6.70;;;5.00;;
83694;SDS011;73676;43.582;22.268;2024-02-14T13:53:28;4.30;;;3.90;;
83694;SDS011;73676;43.582;22.268;2024-02-14T13:55:53;9.10;;;5.47;;
83694;SDS011;73676;43.582;22.268;2024-02-14T13:58:19;8.15;;;5.50;;
83694;SDS011;73676;43.582;22.268;2024-02-14T14:00:44;6.75;;;4.30;;
83694;SDS011;73676;43.582;22.268;2024-02-14T14:03:10;5.50;;;4.22;;
83694;SDS011;73676;43.582;22.268;2024-02-14T14:05:35;15.00;;;8.25;;
83694;SDS011;73676;43.582;22.268;2024-02-14T14:08:00;5.32;;;4.68;;
83694;SDS011;73676;43.582;22.268;2024-02-14T14:10:26;5.68;;;4.95;;